Aviation Digital Data Service (ADDS)

Output produced by TAFs form (2334 UTC 25 May 2015)
found at http://aviationweather.gov/adds/tafs/
 
KASE 252029Z 2520/2618 25005KT P6SM VCSH SCT030 BKN060 
     TEMPO 2521/2601 -RA SCT030 BKN050 
     FM260300 19005KT P6SM VCSH SCT060 BKN100 
     FM261000 20004KT P6SM FEW040 OVC080 
     FM261400 VRB03KT P6SM FEW020 BKN120